Terminal Aerodrome Forecast
Issued by NWS

Home | Current Version | Previous Version | Text Only | Print | Product List | Glossary On
Versions: 1 2 3 4 5 6 7 8 9 10 11 12 13 14 15 16 17 18 19 20
017
FTUS41 KBTV 260708 AAA
TAFSLK
TAF AMD
KSLK 260708Z 2607/2706 24007KT P6SM SCT020
      TEMPO 2607/2610 3SM BR BKN020
     FM261200 25005KT P6SM SCT060
     FM261800 26006KT P6SM VCSH BKN050
     FM270400 VRB04KT P6SM BKN050=

USA.gov is the U.S. government's official web portal to all federal, state and local government web resources and services.